Terminal Aerodrome Forecast
Issued by NWS

Home | Current Version | Previous Version | Text Only | Print | Product List | Glossary On
Versions: 1 2 3 4 5 6 7 8 9 10 11 12 13 14 15 16 17 18 19
000
FTUS44 KEWX 202300
TAFSSF
TAF
KSSF 202323Z 2100/2124 09008KT P6SM FEW050
     FM211000 05004KT 5SM BR SCT015
     FM211500 06006KT P6SM SCT040=

USA.gov is the U.S. government's official web portal to all federal, state and local government web resources and services.